sensor_id;sensor_type;location;lat;lon;timestamp;P1;durP1;ratioP1;P2;durP2;ratioP2
51336;SDS011;37421;51.176;17.196;2022-07-01T00:02:24;0.68;;;0.47;;
51336;SDS011;37421;51.176;17.196;2022-07-01T00:04:50;1.58;;;0.52;;
51336;SDS011;37421;51.176;17.196;2022-07-01T00:07:17;0.43;;;0.40;;
51336;SDS011;37421;51.176;17.196;2022-07-01T00:09:43;0.50;;;0.50;;
51336;SDS011;37421;51.176;17.196;2022-07-01T00:12:09;1.20;;;0.65;;
51336;SDS011;37421;51.176;17.196;2022-07-01T00:14:35;2.15;;;0.85;;
51336;SDS011;37421;51.176;17.196;2022-07-01T00:17:01;0.50;;;0.50;;
51336;SDS011;37421;51.176;17.196;2022-07-01T00:19:27;0.80;;;0.55;;
51336;SDS011;37421;51.176;17.196;2022-07-01T00:21:53;0.57;;;0.55;;
51336;SDS011;37421;51.176;17.196;2022-07-01T00:24:19;0.80;;;0.70;;
51336;SDS011;37421;51.176;17.196;2022-07-01T00:26:45;0.57;;;0.50;;
51336;SDS011;37421;51.176;17.196;2022-07-01T00:29:11;0.82;;;0.73;;
51336;SDS011;37421;51.176;17.196;2022-07-01T00:31:37;0.88;;;0.40;;
51336;SDS011;37421;51.176;17.196;2022-07-01T00:34:03;2.42;;;1.02;;
51336;SDS011;37421;51.176;17.196;2022-07-01T00:36:29;0.40;;;0.40;;
51336;SDS011;37421;51.176;17.196;2022-07-01T00:38:55;1.38;;;0.40;;
51336;SDS011;37421;51.176;17.196;2022-07-01T00:41:21;0.70;;;0.52;;
51336;SDS011;37421;51.176;17.196;2022-07-01T00:43:47;2.05;;;0.77;;
51336;SDS011;37421;51.176;17.196;2022-07-01T00:46:13;0.50;;;0.50;;
51336;SDS011;37421;51.176;17.196;2022-07-01T00:48:40;0.68;;;0.55;;
51336;SDS011;37421;51.176;17.196;2022-07-01T00:51:06;0.77;;;0.57;;
51336;SDS011;37421;51.176;17.196;2022-07-01T00:53:32;0.50;;;0.47;;
51336;SDS011;37421;51.176;17.196;2022-07-01T00:55:59;0.55;;;0.45;;
51336;SDS011;37421;51.176;17.196;2022-07-01T00:58:28;0.30;;;0.30;;
51336;SDS011;37421;51.176;17.196;2022-07-01T01:00:55;1.20;;;0.65;;
51336;SDS011;37421;51.176;17.196;2022-07-01T01:03:24;0.70;;;0.52;;
51336;SDS011;37421;51.176;17.196;2022-07-01T01:05:51;0.70;;;0.50;;
51336;SDS011;37421;51.176;17.196;2022-07-01T01:08:20;0.45;;;0.40;;
51336;SDS011;37421;51.176;17.196;2022-07-01T01:10:46;0.52;;;0.50;;
51336;SDS011;37421;51.176;17.196;2022-07-01T01:13:13;0.95;;;0.50;;
51336;SDS011;37421;51.176;17.196;2022-07-01T01:15:39;0.95;;;0.25;;
51336;SDS011;37421;51.176;17.196;2022-07-01T01:18:05;0.98;;;0.57;;
51336;SDS011;37421;51.176;17.196;2022-07-01T01:20:32;0.80;;;0.50;;
51336;SDS011;37421;51.176;17.196;2022-07-01T01:23:02;0.90;;;0.80;;
51336;SDS011;37421;51.176;17.196;2022-07-01T01:25:32;0.85;;;0.40;;
51336;SDS011;37421;51.176;17.196;2022-07-01T01:27:59;0.88;;;0.50;;
51336;SDS011;37421;51.176;17.196;2022-07-01T01:30:25;0.60;;;0.55;;
51336;SDS011;37421;51.176;17.196;2022-07-01T01:32:51;0.73;;;0.57;;
51336;SDS011;37421;51.176;17.196;2022-07-01T01:35:18;0.82;;;0.40;;
51336;SDS011;37421;51.176;17.196;2022-07-01T01:37:44;0.40;;;0.32;;
51336;SDS011;37421;51.176;17.196;2022-07-01T01:40:11;0.40;;;0.40;;
51336;SDS011;37421;51.176;17.196;2022-07-01T01:42:43;1.13;;;0.60;;
51336;SDS011;37421;51.176;17.196;2022-07-01T01:45:09;1.23;;;0.70;;
51336;SDS011;37421;51.176;17.196;2022-07-01T01:47:36;0.40;;;0.40;;
51336;SDS011;37421;51.176;17.196;2022-07-01T01:50:04;0.50;;;0.40;;
51336;SDS011;37421;51.176;17.196;2022-07-01T01:52:31;0.70;;;0.50;;
51336;SDS011;37421;51.176;17.196;2022-07-01T01:54:57;0.90;;;0.63;;
51336;SDS011;37421;51.176;17.196;2022-07-01T01:57:23;0.65;;;0.35;;
51336;SDS011;37421;51.176;17.196;2022-07-01T01:59:50;0.40;;;0.40;;
51336;SDS011;37421;51.176;17.196;2022-07-01T02:02:16;0.32;;;0.32;;
51336;SDS011;37421;51.176;17.196;2022-07-01T02:04:42;0.38;;;0.30;;
51336;SDS011;37421;51.176;17.196;2022-07-01T02:07:08;0.57;;;0.43;;
51336;SDS011;37421;51.176;17.196;2022-07-01T02:09:34;0.88;;;0.70;;
51336;SDS011;37421;51.176;17.196;2022-07-01T02:12:00;0.95;;;0.55;;
51336;SDS011;37421;51.176;17.196;2022-07-01T02:14:26;0.80;;;0.60;;
51336;SDS011;37421;51.176;17.196;2022-07-01T02:16:52;0.88;;;0.70;;
51336;SDS011;37421;51.176;17.196;2022-07-01T02:19:18;0.65;;;0.52;;
51336;SDS011;37421;51.176;17.196;2022-07-01T02:21:45;0.45;;;0.30;;
51336;SDS011;37421;51.176;17.196;2022-07-01T02:24:11;0.40;;;0.40;;
51336;SDS011;37421;51.176;17.196;2022-07-01T02:26:37;1.10;;;0.57;;
51336;SDS011;37421;51.176;17.196;2022-07-01T02:29:03;0.40;;;0.40;;
51336;SDS011;37421;51.176;17.196;2022-07-01T02:31:29;0.50;;;0.40;;
51336;SDS011;37421;51.176;17.196;2022-07-01T02:33:55;0.47;;;0.32;;
51336;SDS011;37421;51.176;17.196;2022-07-01T02:36:21;0.50;;;0.50;;
51336;SDS011;37421;51.176;17.196;2022-07-01T02:38:47;0.65;;;0.43;;
51336;SDS011;37421;51.176;17.196;2022-07-01T02:41:13;0.93;;;0.55;;
51336;SDS011;37421;51.176;17.196;2022-07-01T02:43:39;0.43;;;0.38;;
51336;SDS011;37421;51.176;17.196;2022-07-01T02:46:05;0.40;;;0.40;;
51336;SDS011;37421;51.176;17.196;2022-07-01T02:48:31;0.55;;;0.40;;
51336;SDS011;37421;51.176;17.196;2022-07-01T02:50:57;1.23;;;0.80;;
51336;SDS011;37421;51.176;17.196;2022-07-01T02:53:23;0.85;;;0.80;;
51336;SDS011;37421;51.176;17.196;2022-07-01T02:55:49;1.15;;;0.63;;
51336;SDS011;37421;51.176;17.196;2022-07-01T02:58:15;1.05;;;0.88;;
51336;SDS011;37421;51.176;17.196;2022-07-01T03:00:41;0.52;;;0.50;;
51336;SDS011;37421;51.176;17.196;2022-07-01T03:03:07;1.42;;;0.98;;
51336;SDS011;37421;51.176;17.196;2022-07-01T03:05:33;0.80;;;0.65;;
51336;SDS011;37421;51.176;17.196;2022-07-01T03:07:59;0.60;;;0.50;;
51336;SDS011;37421;51.176;17.196;2022-07-01T03:10:25;0.75;;;0.60;;
51336;SDS011;37421;51.176;17.196;2022-07-01T03:12:51;0.60;;;0.47;;
51336;SDS011;37421;51.176;17.196;2022-07-01T03:15:17;0.50;;;0.47;;
51336;SDS011;37421;51.176;17.196;2022-07-01T03:17:44;0.32;;;0.30;;
51336;SDS011;37421;51.176;17.196;2022-07-01T03:20:15;1.45;;;1.05;;
51336;SDS011;37421;51.176;17.196;2022-07-01T03:22:43;0.57;;;0.50;;
51336;SDS011;37421;51.176;17.196;2022-07-01T03:25:10;0.70;;;0.40;;
51336;SDS011;37421;51.176;17.196;2022-07-01T03:27:37;0.85;;;0.30;;
51336;SDS011;37421;51.176;17.196;2022-07-01T03:30:04;0.52;;;0.40;;
51336;SDS011;37421;51.176;17.196;2022-07-01T03:32:32;0.32;;;0.32;;
51336;SDS011;37421;51.176;17.196;2022-07-01T03:34:59;0.57;;;0.57;;
51336;SDS011;37421;51.176;17.196;2022-07-01T03:37:25;0.40;;;0.40;;
51336;SDS011;37421;51.176;17.196;2022-07-01T03:39:52;0.55;;;0.50;;
51336;SDS011;37421;51.176;17.196;2022-07-01T03:42:18;0.50;;;0.50;;
51336;SDS011;37421;51.176;17.196;2022-07-01T03:44:45;0.70;;;0.60;;
51336;SDS011;37421;51.176;17.196;2022-07-01T03:47:11;0.40;;;0.40;;
51336;SDS011;37421;51.176;17.196;2022-07-01T03:49:36;0.30;;;0.28;;
51336;SDS011;37421;51.176;17.196;2022-07-01T03:52:03;0.75;;;0.60;;
51336;SDS011;37421;51.176;17.196;2022-07-01T03:54:29;0.60;;;0.50;;
51336;SDS011;37421;51.176;17.196;2022-07-01T03:57:05;0.52;;;0.52;;
51336;SDS011;37421;51.176;17.196;2022-07-01T03:59:34;0.38;;;0.35;;
51336;SDS011;37421;51.176;17.196;2022-07-01T04:02:05;0.68;;;0.47;;
51336;SDS011;37421;51.176;17.196;2022-07-01T04:04:32;0.68;;;0.57;;
51336;SDS011;37421;51.176;17.196;2022-07-01T04:07:00;0.82;;;0.57;;
51336;SDS011;37421;51.176;17.196;2022-07-01T04:09:28;0.75;;;0.63;;
51336;SDS011;37421;51.176;17.196;2022-07-01T04:11:55;0.40;;;0.40;;
51336;SDS011;37421;51.176;17.196;2022-07-01T04:14:22;1.15;;;0.85;;
51336;SDS011;37421;51.176;17.196;2022-07-01T04:16:51;1.02;;;0.60;;
51336;SDS011;37421;51.176;17.196;2022-07-01T04:19:18;1.10;;;0.50;;
51336;SDS011;37421;51.176;17.196;2022-07-01T04:21:45;0.73;;;0.47;;
51336;SDS011;37421;51.176;17.196;2022-07-01T04:24:29;1.13;;;0.80;;
51336;SDS011;37421;51.176;17.196;2022-07-01T04:26:57;0.95;;;0.60;;
51336;SDS011;37421;51.176;17.196;2022-07-01T04:29:24;0.85;;;0.60;;
51336;SDS011;37421;51.176;17.196;2022-07-01T04:31:50;0.77;;;0.68;;
51336;SDS011;37421;51.176;17.196;2022-07-01T04:34:16;0.65;;;0.52;;
51336;SDS011;37421;51.176;17.196;2022-07-01T04:36:43;0.73;;;0.35;;
51336;SDS011;37421;51.176;17.196;2022-07-01T04:39:09;0.50;;;0.50;;
51336;SDS011;37421;51.176;17.196;2022-07-01T04:41:35;1.02;;;0.82;;
51336;SDS011;37421;51.176;17.196;2022-07-01T04:44:20;1.48;;;0.70;;
51336;SDS011;37421;51.176;17.196;2022-07-01T04:46:46;0.82;;;0.60;;
51336;SDS011;37421;51.176;17.196;2022-07-01T04:49:12;2.50;;;0.70;;
51336;SDS011;37421;51.176;17.196;2022-07-01T04:51:38;1.70;;;0.80;;
51336;SDS011;37421;51.176;17.196;2022-07-01T04:54:05;0.70;;;0.60;;
51336;SDS011;37421;51.176;17.196;2022-07-01T04:56:32;0.80;;;0.50;;
51336;SDS011;37421;51.176;17.196;2022-07-01T04:58:59;0.90;;;0.80;;
51336;SDS011;37421;51.176;17.196;2022-07-01T05:01:26;0.90;;;0.70;;
51336;SDS011;37421;51.176;17.196;2022-07-01T05:03:53;0.45;;;0.40;;
51336;SDS011;37421;51.176;17.196;2022-07-01T05:06:20;0.95;;;0.80;;
51336;SDS011;37421;51.176;17.196;2022-07-01T05:08:46;2.28;;;0.55;;
51336;SDS011;37421;51.176;17.196;2022-07-01T05:11:12;0.93;;;0.80;;
51336;SDS011;37421;51.176;17.196;2022-07-01T05:13:38;1.15;;;0.90;;
51336;SDS011;37421;51.176;17.196;2022-07-01T05:28:44;1.48;;;0.73;;
51336;SDS011;37421;51.176;17.196;2022-07-01T05:31:10;0.70;;;0.60;;
51336;SDS011;37421;51.176;17.196;2022-07-01T05:33:36;1.90;;;0.70;;
51336;SDS011;37421;51.176;17.196;2022-07-01T05:36:02;1.48;;;0.80;;
51336;SDS011;37421;51.176;17.196;2022-07-01T05:38:28;1.13;;;0.70;;
51336;SDS011;37421;51.176;17.196;2022-07-01T05:40:55;1.20;;;0.82;;
51336;SDS011;37421;51.176;17.196;2022-07-01T05:43:21;0.70;;;0.60;;
51336;SDS011;37421;51.176;17.196;2022-07-01T05:45:47;1.10;;;0.60;;
51336;SDS011;37421;51.176;17.196;2022-07-01T05:48:13;0.80;;;0.55;;
51336;SDS011;37421;51.176;17.196;2022-07-01T05:50:42;1.08;;;0.77;;
51336;SDS011;37421;51.176;17.196;2022-07-01T05:55:37;0.82;;;0.55;;
51336;SDS011;37421;51.176;17.196;2022-07-01T05:58:03;0.95;;;0.82;;
51336;SDS011;37421;51.176;17.196;2022-07-01T06:00:31;1.17;;;0.93;;
51336;SDS011;37421;51.176;17.196;2022-07-01T06:02:57;1.15;;;0.90;;
51336;SDS011;37421;51.176;17.196;2022-07-01T06:05:23;1.25;;;0.63;;
51336;SDS011;37421;51.176;17.196;2022-07-01T06:07:49;1.00;;;0.80;;
51336;SDS011;37421;51.176;17.196;2022-07-01T06:10:15;1.27;;;1.13;;
51336;SDS011;37421;51.176;17.196;2022-07-01T06:12:41;1.08;;;0.88;;
51336;SDS011;37421;51.176;17.196;2022-07-01T06:15:07;0.95;;;0.85;;
51336;SDS011;37421;51.176;17.196;2022-07-01T06:17:35;1.08;;;0.80;;
51336;SDS011;37421;51.176;17.196;2022-07-01T06:20:03;2.25;;;1.48;;
51336;SDS011;37421;51.176;17.196;2022-07-01T06:22:30;2.10;;;1.25;;
51336;SDS011;37421;51.176;17.196;2022-07-01T06:24:56;1.77;;;1.02;;
51336;SDS011;37421;51.176;17.196;2022-07-01T06:27:22;0.73;;;0.68;;
51336;SDS011;37421;51.176;17.196;2022-07-01T06:29:49;2.13;;;0.93;;
51336;SDS011;37421;51.176;17.196;2022-07-01T06:32:15;1.00;;;0.80;;
51336;SDS011;37421;51.176;17.196;2022-07-01T06:34:41;1.00;;;0.77;;
51336;SDS011;37421;51.176;17.196;2022-07-01T06:37:07;1.15;;;0.80;;
51336;SDS011;37421;51.176;17.196;2022-07-01T06:39:33;0.90;;;0.82;;
51336;SDS011;37421;51.176;17.196;2022-07-01T06:41:59;1.23;;;0.70;;
51336;SDS011;37421;51.176;17.196;2022-07-01T06:44:25;1.33;;;0.80;;
51336;SDS011;37421;51.176;17.196;2022-07-01T06:46:51;1.05;;;0.80;;
51336;SDS011;37421;51.176;17.196;2022-07-01T06:49:17;0.82;;;0.77;;
51336;SDS011;37421;51.176;17.196;2022-07-01T06:51:43;1.10;;;0.80;;
51336;SDS011;37421;51.176;17.196;2022-07-01T06:54:09;1.63;;;1.10;;
51336;SDS011;37421;51.176;17.196;2022-07-01T06:56:35;1.45;;;0.98;;
51336;SDS011;37421;51.176;17.196;2022-07-01T06:59:01;0.65;;;0.65;;
51336;SDS011;37421;51.176;17.196;2022-07-01T07:01:28;1.80;;;0.90;;
51336;SDS011;37421;51.176;17.196;2022-07-01T07:03:54;0.98;;;0.70;;
51336;SDS011;37421;51.176;17.196;2022-07-01T07:06:21;2.28;;;0.90;;
51336;SDS011;37421;51.176;17.196;2022-07-01T07:08:47;0.98;;;0.80;;
51336;SDS011;37421;51.176;17.196;2022-07-01T07:11:13;1.10;;;0.73;;
51336;SDS011;37421;51.176;17.196;2022-07-01T07:13:40;1.30;;;0.90;;
51336;SDS011;37421;51.176;17.196;2022-07-01T07:16:07;0.85;;;0.80;;
51336;SDS011;37421;51.176;17.196;2022-07-01T07:18:33;0.80;;;0.70;;
51336;SDS011;37421;51.176;17.196;2022-07-01T07:20:59;1.88;;;1.00;;
51336;SDS011;37421;51.176;17.196;2022-07-01T07:23:25;0.95;;;0.80;;
51336;SDS011;37421;51.176;17.196;2022-07-01T07:25:51;1.20;;;0.90;;
51336;SDS011;37421;51.176;17.196;2022-07-01T07:28:17;0.90;;;0.80;;
51336;SDS011;37421;51.176;17.196;2022-07-01T07:30:43;1.98;;;1.10;;
51336;SDS011;37421;51.176;17.196;2022-07-01T07:33:09;0.70;;;0.60;;
51336;SDS011;37421;51.176;17.196;2022-07-01T07:35:35;1.45;;;1.00;;
51336;SDS011;37421;51.176;17.196;2022-07-01T07:38:01;0.90;;;0.80;;
51336;SDS011;37421;51.176;17.196;2022-07-01T07:40:27;1.02;;;0.70;;
51336;SDS011;37421;51.176;17.196;2022-07-01T07:42:53;0.95;;;0.85;;
51336;SDS011;37421;51.176;17.196;2022-07-01T07:45:19;1.30;;;0.90;;
51336;SDS011;37421;51.176;17.196;2022-07-01T07:47:45;1.17;;;0.80;;
51336;SDS011;37421;51.176;17.196;2022-07-01T07:50:19;1.27;;;1.10;;
51336;SDS011;37421;51.176;17.196;2022-07-01T07:52:46;0.82;;;0.80;;
51336;SDS011;37421;51.176;17.196;2022-07-01T07:55:12;0.50;;;0.50;;
51336;SDS011;37421;51.176;17.196;2022-07-01T07:57:38;0.95;;;0.80;;
51336;SDS011;37421;51.176;17.196;2022-07-01T08:00:06;1.00;;;0.80;;
51336;SDS011;37421;51.176;17.196;2022-07-01T08:02:34;0.88;;;0.80;;
51336;SDS011;37421;51.176;17.196;2022-07-01T08:05:00;0.73;;;0.73;;
51336;SDS011;37421;51.176;17.196;2022-07-01T08:07:26;0.90;;;0.68;;
51336;SDS011;37421;51.176;17.196;2022-07-01T08:09:52;1.30;;;0.90;;
51336;SDS011;37421;51.176;17.196;2022-07-01T08:12:18;1.10;;;1.00;;
51336;SDS011;37421;51.176;17.196;2022-07-01T08:14:44;1.02;;;0.88;;
51336;SDS011;37421;51.176;17.196;2022-07-01T08:17:10;0.80;;;0.70;;
51336;SDS011;37421;51.176;17.196;2022-07-01T08:19:36;1.02;;;0.93;;
51336;SDS011;37421;51.176;17.196;2022-07-01T08:22:02;0.85;;;0.80;;
51336;SDS011;37421;51.176;17.196;2022-07-01T08:24:28;1.30;;;1.00;;
51336;SDS011;37421;51.176;17.196;2022-07-01T08:26:54;1.20;;;1.00;;
51336;SDS011;37421;51.176;17.196;2022-07-01T08:29:20;2.88;;;1.00;;
51336;SDS011;37421;51.176;17.196;2022-07-01T08:31:46;1.00;;;0.88;;
51336;SDS011;37421;51.176;17.196;2022-07-01T08:34:12;1.27;;;0.95;;
51336;SDS011;37421;51.176;17.196;2022-07-01T08:36:38;0.80;;;0.75;;
51336;SDS011;37421;51.176;17.196;2022-07-01T08:39:04;1.05;;;0.90;;
51336;SDS011;37421;51.176;17.196;2022-07-01T08:41:30;1.23;;;0.88;;
51336;SDS011;37421;51.176;17.196;2022-07-01T08:43:56;1.23;;;0.85;;
51336;SDS011;37421;51.176;17.196;2022-07-01T08:46:22;0.95;;;0.80;;
51336;SDS011;37421;51.176;17.196;2022-07-01T08:48:48;3.45;;;0.90;;
51336;SDS011;37421;51.176;17.196;2022-07-01T08:51:15;0.90;;;0.80;;
51336;SDS011;37421;51.176;17.196;2022-07-01T08:53:40;0.70;;;0.63;;
51336;SDS011;37421;51.176;17.196;2022-07-01T08:56:06;0.85;;;0.80;;
51336;SDS011;37421;51.176;17.196;2022-07-01T08:58:51;0.68;;;0.68;;
51336;SDS011;37421;51.176;17.196;2022-07-01T09:01:18;0.80;;;0.65;;
51336;SDS011;37421;51.176;17.196;2022-07-01T09:03:51;0.70;;;0.70;;
51336;SDS011;37421;51.176;17.196;2022-07-01T09:06:22;1.10;;;0.80;;
51336;SDS011;37421;51.176;17.196;2022-07-01T09:08:51;1.10;;;1.00;;
51336;SDS011;37421;51.176;17.196;2022-07-01T09:11:24;0.68;;;0.60;;
51336;SDS011;37421;51.176;17.196;2022-07-01T09:14:07;0.90;;;0.73;;
51336;SDS011;37421;51.176;17.196;2022-07-01T09:16:45;0.80;;;0.80;;
51336;SDS011;37421;51.176;17.196;2022-07-01T09:19:14;1.15;;;0.70;;
51336;SDS011;37421;51.176;17.196;2022-07-01T09:21:41;1.13;;;0.70;;
51336;SDS011;37421;51.176;17.196;2022-07-01T09:27:13;0.60;;;0.60;;
51336;SDS011;37421;51.176;17.196;2022-07-01T09:29:44;0.77;;;0.75;;
51336;SDS011;37421;51.176;17.196;2022-07-01T09:32:20;0.80;;;0.70;;
51336;SDS011;37421;51.176;17.196;2022-07-01T09:34:48;0.77;;;0.75;;
51336;SDS011;37421;51.176;17.196;2022-07-01T09:37:15;0.80;;;0.68;;
51336;SDS011;37421;51.176;17.196;2022-07-01T09:42:12;0.88;;;0.73;;
51336;SDS011;37421;51.176;17.196;2022-07-01T09:44:52;0.60;;;0.60;;
51336;SDS011;37421;51.176;17.196;2022-07-01T09:47:25;0.68;;;0.68;;
51336;SDS011;37421;51.176;17.196;2022-07-01T09:49:53;0.70;;;0.65;;
51336;SDS011;37421;51.176;17.196;2022-07-01T09:52:20;1.13;;;0.60;;
51336;SDS011;37421;51.176;17.196;2022-07-01T09:54:48;0.63;;;0.60;;
51336;SDS011;37421;51.176;17.196;2022-07-01T09:57:15;1.10;;;0.70;;
51336;SDS011;37421;51.176;17.196;2022-07-01T09:59:42;0.68;;;0.68;;
51336;SDS011;37421;51.176;17.196;2022-07-01T10:02:09;0.88;;;0.73;;
51336;SDS011;37421;51.176;17.196;2022-07-01T10:04:36;1.33;;;0.73;;
51336;SDS011;37421;51.176;17.196;2022-07-01T10:14:46;0.65;;;0.60;;
51336;SDS011;37421;51.176;17.196;2022-07-01T10:17:29;1.38;;;0.93;;
51336;SDS011;37421;51.176;17.196;2022-07-01T10:20:06;1.05;;;0.95;;
51336;SDS011;37421;51.176;17.196;2022-07-01T10:22:43;1.10;;;0.88;;
51336;SDS011;37421;51.176;17.196;2022-07-01T10:31:04;0.60;;;0.55;;
51336;SDS011;37421;51.176;17.196;2022-07-01T10:41:29;0.60;;;0.60;;
51336;SDS011;37421;51.176;17.196;2022-07-01T10:44:01;0.57;;;0.57;;
51336;SDS011;37421;51.176;17.196;2022-07-01T10:49:10;0.80;;;0.80;;
51336;SDS011;37421;51.176;17.196;2022-07-01T10:51:57;0.57;;;0.57;;
51336;SDS011;37421;51.176;17.196;2022-07-01T10:59:43;0.90;;;0.50;;
51336;SDS011;37421;51.176;17.196;2022-07-01T11:02:11;0.85;;;0.77;;
51336;SDS011;37421;51.176;17.196;2022-07-01T11:04:41;0.90;;;0.60;;
51336;SDS011;37421;51.176;17.196;2022-07-01T11:07:07;0.60;;;0.60;;
51336;SDS011;37421;51.176;17.196;2022-07-01T11:09:34;0.50;;;0.47;;
51336;SDS011;37421;51.176;17.196;2022-07-01T11:12:00;0.47;;;0.47;;
51336;SDS011;37421;51.176;17.196;2022-07-01T11:14:27;0.77;;;0.70;;
51336;SDS011;37421;51.176;17.196;2022-07-01T11:16:54;0.73;;;0.50;;
51336;SDS011;37421;51.176;17.196;2022-07-01T11:19:22;0.60;;;0.60;;
51336;SDS011;37421;51.176;17.196;2022-07-01T11:21:49;0.80;;;0.60;;
51336;SDS011;37421;51.176;17.196;2022-07-01T11:24:16;0.45;;;0.45;;
51336;SDS011;37421;51.176;17.196;2022-07-01T11:26:43;0.40;;;0.40;;
51336;SDS011;37421;51.176;17.196;2022-07-01T11:29:09;0.52;;;0.45;;
51336;SDS011;37421;51.176;17.196;2022-07-01T11:31:36;0.60;;;0.52;;
51336;SDS011;37421;51.176;17.196;2022-07-01T11:34:02;0.50;;;0.40;;
51336;SDS011;37421;51.176;17.196;2022-07-01T11:36:29;0.52;;;0.50;;
51336;SDS011;37421;51.176;17.196;2022-07-01T11:39:13;0.60;;;0.60;;
51336;SDS011;37421;51.176;17.196;2022-07-01T11:41:47;0.47;;;0.40;;
51336;SDS011;37421;51.176;17.196;2022-07-01T11:44:57;0.90;;;0.35;;
51336;SDS011;37421;51.176;17.196;2022-07-01T11:47:23;0.45;;;0.40;;
51336;SDS011;37421;51.176;17.196;2022-07-01T11:49:50;0.40;;;0.40;;
51336;SDS011;37421;51.176;17.196;2022-07-01T11:52:17;0.50;;;0.40;;
51336;SDS011;37421;51.176;17.196;2022-07-01T11:54:45;0.47;;;0.40;;
51336;SDS011;37421;51.176;17.196;2022-07-01T11:57:14;0.30;;;0.30;;
51336;SDS011;37421;51.176;17.196;2022-07-01T11:59:42;0.30;;;0.30;;
51336;SDS011;37421;51.176;17.196;2022-07-01T12:02:10;0.60;;;0.50;;
51336;SDS011;37421;51.176;17.196;2022-07-01T12:04:38;0.55;;;0.40;;
51336;SDS011;37421;51.176;17.196;2022-07-01T12:07:05;0.30;;;0.30;;
51336;SDS011;37421;51.176;17.196;2022-07-01T12:09:31;0.50;;;0.40;;
51336;SDS011;37421;51.176;17.196;2022-07-01T12:11:57;0.50;;;0.50;;
51336;SDS011;37421;51.176;17.196;2022-07-01T12:14:30;0.82;;;0.60;;
51336;SDS011;37421;51.176;17.196;2022-07-01T12:17:04;0.47;;;0.40;;
51336;SDS011;37421;51.176;17.196;2022-07-01T12:22:11;1.55;;;0.80;;
51336;SDS011;37421;51.176;17.196;2022-07-01T12:24:38;0.68;;;0.50;;
51336;SDS011;37421;51.176;17.196;2022-07-01T12:27:08;0.70;;;0.38;;
51336;SDS011;37421;51.176;17.196;2022-07-01T12:32:22;0.50;;;0.30;;
51336;SDS011;37421;51.176;17.196;2022-07-01T12:35:00;0.30;;;0.30;;
51336;SDS011;37421;51.176;17.196;2022-07-01T12:37:37;0.25;;;0.25;;
51336;SDS011;37421;51.176;17.196;2022-07-01T12:40:36;0.30;;;0.20;;
51336;SDS011;37421;51.176;17.196;2022-07-01T12:42:56;0.10;;;0.10;;
51336;SDS011;37421;51.176;17.196;2022-07-01T12:45:31;0.25;;;0.15;;
51336;SDS011;37421;51.176;17.196;2022-07-01T12:47:59;0.22;;;0.20;;
51336;SDS011;37421;51.176;17.196;2022-07-01T12:50:27;0.30;;;0.30;;
51336;SDS011;37421;51.176;17.196;2022-07-01T12:53:02;0.38;;;0.30;;
51336;SDS011;37421;51.176;17.196;2022-07-01T12:55:43;0.75;;;0.30;;
51336;SDS011;37421;51.176;17.196;2022-07-01T12:58:28;0.95;;;0.38;;
51336;SDS011;37421;51.176;17.196;2022-07-01T13:00:55;0.22;;;0.22;;
51336;SDS011;37421;51.176;17.196;2022-07-01T13:03:23;0.30;;;0.22;;
51336;SDS011;37421;51.176;17.196;2022-07-01T13:05:51;0.43;;;0.40;;
51336;SDS011;37421;51.176;17.196;2022-07-01T13:08:18;0.43;;;0.35;;
51336;SDS011;37421;51.176;17.196;2022-07-01T13:10:45;0.40;;;0.30;;
51336;SDS011;37421;51.176;17.196;2022-07-01T13:13:11;0.77;;;0.75;;
51336;SDS011;37421;51.176;17.196;2022-07-01T13:15:38;0.57;;;0.40;;
51336;SDS011;37421;51.176;17.196;2022-07-01T13:18:05;0.30;;;0.30;;
51336;SDS011;37421;51.176;17.196;2022-07-01T13:20:31;0.65;;;0.40;;
51336;SDS011;37421;51.176;17.196;2022-07-01T13:22:58;0.45;;;0.40;;
51336;SDS011;37421;51.176;17.196;2022-07-01T13:25:24;0.40;;;0.30;;
51336;SDS011;37421;51.176;17.196;2022-07-01T13:27:50;0.32;;;0.30;;
51336;SDS011;37421;51.176;17.196;2022-07-01T13:30:16;0.47;;;0.40;;
51336;SDS011;37421;51.176;17.196;2022-07-01T13:32:44;0.63;;;0.43;;
51336;SDS011;37421;51.176;17.196;2022-07-01T13:35:11;0.60;;;0.50;;
51336;SDS011;37421;51.176;17.196;2022-07-01T13:37:39;0.47;;;0.40;;
51336;SDS011;37421;51.176;17.196;2022-07-01T13:40:05;1.00;;;0.45;;
51336;SDS011;37421;51.176;17.196;2022-07-01T13:42:32;0.40;;;0.30;;
51336;SDS011;37421;51.176;17.196;2022-07-01T13:44:58;0.40;;;0.30;;
51336;SDS011;37421;51.176;17.196;2022-07-01T13:47:24;0.85;;;0.55;;
51336;SDS011;37421;51.176;17.196;2022-07-01T13:49:50;0.82;;;0.40;;
51336;SDS011;37421;51.176;17.196;2022-07-01T13:52:16;0.20;;;0.20;;
51336;SDS011;37421;51.176;17.196;2022-07-01T13:54:42;0.28;;;0.25;;
51336;SDS011;37421;51.176;17.196;2022-07-01T13:57:08;0.32;;;0.20;;
51336;SDS011;37421;51.176;17.196;2022-07-01T13:59:34;0.30;;;0.30;;
51336;SDS011;37421;51.176;17.196;2022-07-01T14:02:00;0.20;;;0.20;;
51336;SDS011;37421;51.176;17.196;2022-07-01T14:04:26;0.32;;;0.30;;
51336;SDS011;37421;51.176;17.196;2022-07-01T14:06:52;0.20;;;0.20;;
51336;SDS011;37421;51.176;17.196;2022-07-01T14:09:18;0.30;;;0.30;;
51336;SDS011;37421;51.176;17.196;2022-07-01T14:11:45;1.50;;;0.40;;
51336;SDS011;37421;51.176;17.196;2022-07-01T14:14:12;0.10;;;0.10;;
51336;SDS011;37421;51.176;17.196;2022-07-01T14:16:38;0.30;;;0.30;;
51336;SDS011;37421;51.176;17.196;2022-07-01T14:19:04;0.40;;;0.30;;
51336;SDS011;37421;51.176;17.196;2022-07-01T14:21:30;0.30;;;0.25;;
51336;SDS011;37421;51.176;17.196;2022-07-01T14:23:56;0.98;;;0.28;;
51336;SDS011;37421;51.176;17.196;2022-07-01T14:26:25;0.55;;;0.47;;
51336;SDS011;37421;51.176;17.196;2022-07-01T14:28:51;0.30;;;0.20;;
51336;SDS011;37421;51.176;17.196;2022-07-01T14:31:17;0.85;;;0.57;;
51336;SDS011;37421;51.176;17.196;2022-07-01T14:33:43;0.50;;;0.50;;
51336;SDS011;37421;51.176;17.196;2022-07-01T14:36:09;1.10;;;0.40;;
51336;SDS011;37421;51.176;17.196;2022-07-01T14:38:35;0.50;;;0.40;;
51336;SDS011;37421;51.176;17.196;2022-07-01T14:41:01;0.57;;;0.50;;
51336;SDS011;37421;51.176;17.196;2022-07-01T14:43:27;0.40;;;0.32;;
51336;SDS011;37421;51.176;17.196;2022-07-01T14:45:54;0.80;;;0.60;;
51336;SDS011;37421;51.176;17.196;2022-07-01T14:48:21;0.90;;;0.55;;
51336;SDS011;37421;51.176;17.196;2022-07-01T14:50:46;0.68;;;0.68;;
51336;SDS011;37421;51.176;17.196;2022-07-01T14:53:12;0.70;;;0.70;;
51336;SDS011;37421;51.176;17.196;2022-07-01T14:55:38;0.47;;;0.40;;
51336;SDS011;37421;51.176;17.196;2022-07-01T14:58:04;1.27;;;0.85;;
51336;SDS011;37421;51.176;17.196;2022-07-01T15:00:30;0.80;;;0.75;;
51336;SDS011;37421;51.176;17.196;2022-07-01T15:03:02;0.77;;;0.75;;
51336;SDS011;37421;51.176;17.196;2022-07-01T15:05:29;0.80;;;0.70;;
51336;SDS011;37421;51.176;17.196;2022-07-01T15:07:55;0.77;;;0.70;;
51336;SDS011;37421;51.176;17.196;2022-07-01T15:10:21;0.88;;;0.60;;
51336;SDS011;37421;51.176;17.196;2022-07-01T15:12:48;0.80;;;0.60;;
51336;SDS011;37421;51.176;17.196;2022-07-01T15:15:15;0.73;;;0.70;;
51336;SDS011;37421;51.176;17.196;2022-07-01T15:17:42;0.57;;;0.52;;
51336;SDS011;37421;51.176;17.196;2022-07-01T15:20:10;0.93;;;0.73;;
51336;SDS011;37421;51.176;17.196;2022-07-01T15:22:37;1.55;;;0.90;;
51336;SDS011;37421;51.176;17.196;2022-07-01T15:25:04;1.25;;;0.68;;
51336;SDS011;37421;51.176;17.196;2022-07-01T15:27:30;1.02;;;0.50;;
51336;SDS011;37421;51.176;17.196;2022-07-01T15:29:56;0.57;;;0.50;;
51336;SDS011;37421;51.176;17.196;2022-07-01T15:32:22;0.82;;;0.50;;